Time;durP1;ratioP1;P1;durP2;ratioP2;P2;SDS_P1;SDS_P2;PMS_P1;PMS_P2;Temp;Humidity;BMP_temperature;BMP_pressure;BME280_temperature;BME280_humidity;BME280_pressure;Samples;Min_cycle;Max_cycle;Signal;HPM_P1;HPM_P2
2022/12/16 00:00:14;;;;;;;27.30;20.58;;;;;;;-0.61;86.06;100876.16;5011504;28;20050;-53
2022/12/16 00:02:42;;;;;;;27.70;20.63;;;;;;;-0.60;86.03;100868.97;5013407;28;20046;-52
2022/12/16 00:05:10;;;;;;;29.00;19.98;;;;;;;-0.61;86.46;100876.16;5005437;28;20077;-50
2022/12/16 00:07:37;;;;;;;28.55;20.33;;;;;;;-0.59;86.69;100881.34;5010181;28;20513;-52
2022/12/16 00:10:06;;;;;;;30.38;21.17;;;;;;;-0.59;86.87;100895.53;5013213;28;20515;-49
2022/12/16 00:12:34;;;;;;;34.08;21.45;;;;;;;-0.60;86.72;100887.69;5011874;28;20042;-50
2022/12/16 00:15:02;;;;;;;30.48;20.77;;;;;;;-0.59;86.67;100889.38;4998702;28;20050;-50
2022/12/16 00:17:30;;;;;;;30.67;21.92;;;;;;;-0.58;86.69;100889.16;4989267;28;20046;-48
2022/12/16 00:19:57;;;;;;;27.13;19.85;;;;;;;-0.52;87.36;100883.03;5003210;28;20665;-53
2022/12/16 00:22:25;;;;;;;30.45;20.77;;;;;;;-0.50;87.15;100891.72;5013215;28;20097;-51
2022/12/16 00:24:52;;;;;;;28.15;19.85;;;;;;;-0.47;86.87;100875.25;5000017;28;20034;-51
2022/12/16 00:27:21;;;;;;;26.05;18.35;;;;;;;-0.44;87.50;100880.22;5007435;28;20042;-54
2022/12/16 00:29:49;;;;;;;28.23;18.70;;;;;;;-0.42;87.32;100885.38;4994690;28;20101;-52
2022/12/16 00:32:16;;;;;;;32.17;21.45;;;;;;;-0.41;87.32;100870.97;5006580;28;20054;-53
2022/12/16 00:34:44;;;;;;;28.50;20.98;;;;;;;-0.43;87.20;100873.84;4978780;28;20044;-51
2022/12/16 00:37:12;;;;;;;29.70;21.23;;;;;;;-0.44;87.03;100874.84;5003557;28;20042;-52
2022/12/16 00:39:39;;;;;;;31.42;21.83;;;;;;;-0.42;87.21;100872.00;4999211;28;20054;-50
2022/12/16 00:42:07;;;;;;;32.75;23.27;;;;;;;-0.42;87.39;100872.00;5012878;28;20042;-52
2022/12/16 00:44:35;;;;;;;31.60;21.45;;;;;;;-0.41;87.41;100879.00;4987516;28;20563;-52
2022/12/16 00:47:02;;;;;;;28.60;20.73;;;;;;;-0.38;87.58;100872.47;5011486;28;20034;-54
2022/12/16 00:49:30;;;;;;;30.42;21.23;;;;;;;-0.36;87.61;100881.94;4985225;28;20034;-53
2022/12/16 00:51:57;;;;;;;29.10;20.60;;;;;;;-0.32;88.02;100882.38;4980943;28;20038;-51
2022/12/16 00:54:25;;;;;;;29.80;20.55;;;;;;;-0.31;87.38;100884.03;5005106;28;20048;-49
2022/12/16 00:56:53;;;;;;;29.25;21.08;;;;;;;-0.29;88.22;100882.81;4994344;28;20042;-50
2022/12/16 00:59:21;;;;;;;32.20;21.45;;;;;;;-0.27;87.38;100879.94;4976562;28;20105;-55
2022/12/16 01:01:49;;;;;;;30.63;20.40;;;;;;;-0.28;87.34;100889.81;5018961;28;20045;-51
2022/12/16 01:04:17;;;;;;;32.47;20.98;;;;;;;-0.29;87.79;100892.69;5011029;28;20049;-50
2022/12/16 01:06:46;;;;;;;29.08;20.02;;;;;;;-0.31;87.83;100892.06;5012399;28;20038;-55
2022/12/16 01:09:13;;;;;;;29.85;21.67;;;;;;;-0.31;88.39;100895.56;4998585;28;20050;-54
2022/12/16 01:11:41;;;;;;;31.42;21.02;;;;;;;-0.32;88.11;100888.53;5010897;28;20042;-54
2022/12/16 01:14:08;;;;;;;31.05;20.80;;;;;;;-0.31;87.57;100892.06;5003115;28;20412;-49
2022/12/16 01:16:36;;;;;;;26.13;19.50;;;;;;;-0.29;88.55;100895.34;5018761;28;20381;-50
2022/12/16 01:19:04;;;;;;;27.67;20.17;;;;;;;-0.27;88.15;100902.16;5014658;28;20045;-50
2022/12/16 01:21:31;;;;;;;28.70;20.17;;;;;;;-0.25;88.57;100904.66;4991441;28;20046;-52
2022/12/16 01:23:59;;;;;;;27.05;19.80;;;;;;;-0.22;88.67;100906.94;4999659;28;20050;-50
2022/12/16 01:26:26;;;;;;;30.27;20.75;;;;;;;-0.22;88.07;100905.13;5014411;28;20049;-55
2022/12/16 01:28:54;;;;;;;28.63;19.92;;;;;;;-0.20;88.10;100906.75;5016125;28;20125;-49
2022/12/16 01:31:22;;;;;;;28.85;20.88;;;;;;;-0.22;88.24;100909.63;5013142;28;20044;-50
2022/12/16 01:33:50;;;;;;;29.65;20.40;;;;;;;-0.20;88.51;100912.13;4974911;28;20401;-51
2022/12/16 01:36:18;;;;;;;28.95;20.85;;;;;;;-0.19;88.62;100914.59;5012937;28;20046;-52
2022/12/16 01:38:46;;;;;;;31.23;20.58;;;;;;;-0.21;88.31;100922.00;5015598;28;20080;-51
2022/12/16 01:41:15;;;;;;;27.83;21.08;;;;;;;-0.22;88.25;100926.53;5015769;28;20050;-49
2022/12/16 01:43:43;;;;;;;28.02;20.25;;;;;;;-0.23;89.12;100930.22;5001291;28;20045;-53
2022/12/16 01:46:19;;;;;;;30.60;20.55;;;;;;;-0.24;88.41;100923.22;5006784;28;20069;-50
2022/12/16 01:48:57;;;;;;;28.20;20.52;;;;;;;-0.24;88.35;100925.03;5003166;28;20044;-50
2022/12/16 01:51:48;;;;;;;32.25;21.55;;;;;;;-0.23;88.85;100932.91;4981921;28;20054;-50
2022/12/16 01:54:36;;;;;;;30.20;20.80;;;;;;;-0.22;88.89;100936.41;4987455;28;20042;-51
2022/12/16 01:57:08;;;;;;;29.17;20.80;;;;;;;-0.22;88.82;100941.75;5015320;28;20042;-49
2022/12/16 01:59:38;;;;;;;30.65;20.95;;;;;;;-0.22;89.63;100941.75;4997957;28;20034;-51
2022/12/16 02:02:06;;;;;;;29.65;20.73;;;;;;;-0.22;89.08;100942.59;4997809;28;20042;-49
2022/12/16 02:05:19;;;;;;;31.70;21.77;;;;;;;-0.21;89.77;100954.13;5003652;28;20042;-51
2022/12/16 02:07:24;;;;;;;30.42;20.80;;;;;;;-0.22;89.52;100950.63;5014888;28;20038;-51
2022/12/16 02:09:52;;;;;;;29.73;20.73;;;;;;;-0.22;90.14;100945.28;4998153;28;20396;-51
2022/12/16 02:12:32;;;;;;;30.92;20.80;;;;;;;-0.20;89.86;100950.41;4995191;28;20043;-51
2022/12/16 02:15:18;;;;;;;30.05;21.00;;;;;;;-0.19;89.76;100948.56;4996757;28;20524;-53
2022/12/16 02:18:03;;;;;;;29.10;19.95;;;;;;;-0.20;89.92;100950.41;5014001;28;20412;-52
2022/12/16 02:20:42;;;;;;;33.13;21.25;;;;;;;-0.20;89.94;100950.41;5014822;28;20042;-49
2022/12/16 02:23:33;;;;;;;29.90;19.30;;;;;;;-0.19;91.01;100954.78;4993958;28;20042;-52
2022/12/16 02:26:09;;;;;;;31.38;21.70;;;;;;;-0.20;90.88;100958.44;5011860;28;20049;-49
2022/12/16 02:28:55;;;;;;;29.83;20.42;;;;;;;-0.21;90.89;100951.47;4997557;28;20049;-49
2022/12/16 02:31:53;;;;;;;31.48;21.08;;;;;;;-0.21;90.95;100954.13;5013169;28;20437;-52
2022/12/16 02:34:54;;;;;;;35.10;22.73;;;;;;;-0.22;90.98;100961.34;5005218;28;20558;-53
2022/12/16 02:37:50;;;;;;;31.85;22.33;;;;;;;-0.21;91.64;100959.50;5011211;28;20058;-51
2022/12/16 02:40:23;;;;;;;29.23;22.00;;;;;;;-0.18;92.04;100964.44;4991392;28;20084;-50
2022/12/16 02:42:59;;;;;;;31.50;21.65;;;;;;;-0.13;91.33;100971.91;4980313;28;20057;-50
2022/12/16 02:45:30;;;;;;;31.17;21.77;;;;;;;-0.12;91.82;100966.38;4961491;28;20054;-54
2022/12/16 02:47:58;;;;;;;33.63;21.55;;;;;;;-0.09;91.00;100965.97;5003566;28;20044;-50
2022/12/16 02:50:48;;;;;;;30.10;20.92;;;;;;;-0.08;91.62;100969.47;4978902;28;20046;-52
2022/12/16 02:53:17;;;;;;;31.33;21.90;;;;;;;-0.10;91.31;100980.38;4998066;28;20713;-52
2022/12/16 02:56:10;;;;;;;30.42;22.25;;;;;;;-0.11;91.77;100972.53;4997184;28;20492;-52
2022/12/16 02:58:45;;;;;;;30.25;21.58;;;;;;;-0.16;91.44;100975.81;5002114;28;20097;-50
2022/12/16 03:01:28;;;;;;;33.33;21.25;;;;;;;-0.17;92.24;100976.81;4968796;28;20482;-50
2022/12/16 03:04:24;;;;;;;30.73;21.77;;;;;;;-0.15;92.13;100979.31;4991277;28;20053;-52
2022/12/16 03:06:54;;;;;;;31.25;21.33;;;;;;;-0.15;92.32;100974.75;5008504;28;20141;-58
2022/12/16 03:09:25;;;;;;;30.90;21.35;;;;;;;-0.13;92.56;100967.38;4998265;28;20053;-55
2022/12/16 03:11:54;;;;;;;31.05;21.40;;;;;;;-0.11;93.00;100970.69;5006291;28;20034;-56
2022/12/16 03:14:25;;;;;;;32.67;22.38;;;;;;;-0.09;93.48;100976.69;5012416;28;20444;-52
2022/12/16 03:16:52;;;;;;;31.40;22.23;;;;;;;-0.09;93.33;100974.00;4989563;28;20046;-50
2022/12/16 03:19:21;;;;;;;29.55;20.90;;;;;;;-0.11;94.15;100970.69;4992455;28;20046;-53
2022/12/16 03:21:59;;;;;;;33.72;22.20;;;;;;;-0.12;94.44;100974.41;4971452;28;20050;-52
2022/12/16 03:24:27;;;;;;;30.55;21.55;;;;;;;-0.11;94.38;100976.03;4992172;28;20404;-51
2022/12/16 03:27:11;;;;;;;32.35;22.73;;;;;;;-0.12;95.25;100979.75;5004869;28;20053;-52
2022/12/16 03:29:49;;;;;;;32.45;22.13;;;;;;;-0.13;95.61;100975.41;4980137;28;20452;-50
2022/12/16 03:32:36;;;;;;;32.35;22.73;;;;;;;-0.12;95.72;100977.06;5002898;28;20045;-51
2022/12/16 03:35:22;;;;;;;32.45;21.40;;;;;;;-0.12;95.96;100978.91;5012788;28;20034;-53
2022/12/16 03:37:51;;;;;;;;;;;;;;;-0.12;95.75;100985.13;5004848;28;20055;-54
2022/12/16 03:40:20;;;;;;;29.83;21.92;;;;;;;-0.13;95.88;100987.97;4993673;28;19929;-53
2022/12/16 03:42:48;;;;;;;28.27;21.73;;;;;;;-0.16;96.03;101002.56;4984842;28;20061;-54
2022/12/16 03:45:19;;;;;;;31.23;21.67;;;;;;;-0.17;96.73;101000.91;4992912;28;20042;-50
2022/12/16 03:47:51;;;;;;;31.23;21.85;;;;;;;-0.15;97.43;101006.91;5013382;28;20064;-49
2022/12/16 03:50:25;;;;;;;32.22;21.58;;;;;;;-0.13;97.11;101004.84;5013318;28;20042;-50
2022/12/16 03:52:53;;;;;;;35.45;22.35;;;;;;;-0.13;97.01;101006.72;4977766;28;20101;-50
2022/12/16 03:55:21;;;;;;;33.55;21.75;;;;;;;-0.14;97.52;101003.22;4987866;28;20042;-52
2022/12/16 03:57:48;;;;;;;29.50;21.40;;;;;;;-0.13;97.05;101015.56;5007897;28;20050;-53
2022/12/16 04:00:16;;;;;;;33.97;23.08;;;;;;;-0.15;97.51;101016.78;5013120;28;20049;-49
2022/12/16 04:02:44;;;;;;;29.80;21.63;;;;;;;-0.17;98.46;101022.31;4981966;28;20042;-52
2022/12/16 04:05:12;;;;;;;29.15;21.45;;;;;;;-0.17;97.85;101024.19;5006501;28;20048;-49
2022/12/16 04:07:39;;;;;;;31.38;22.52;;;;;;;-0.19;98.70;101034.25;5013116;28;20050;-51
2022/12/16 04:10:08;;;;;;;34.80;21.60;;;;;;;-0.19;98.33;101036.94;5013121;28;20053;-48
2022/12/16 04:29:24;;;;;;;37.08;22.73;;;;;;;-0.24;100.00;101042.84;4981947;28;20038;-51
2022/12/16 04:31:52;;;;;;;38.13;23.85;;;;;;;-0.23;100.00;101045.34;4999410;28;20046;-51
2022/12/16 04:34:28;;;;;;;40.25;23.48;;;;;;;-0.23;100.00;101050.72;5007322;28;20054;-52
